Time;durP1;ratioP1;P1;durP2;ratioP2;P2;SDS_P1;SDS_P2;PMS_P1;PMS_P2;Temp;Humidity;BMP_temperature;BMP_pressure;BME280_temperature;BME280_humidity;BME280_pressure;Samples;Min_cycle;Max_cycle;Signal;HPM_P1;HPM_P2
2021/07/10 00:02:01;;;;;;;2.80;2.03;;;12.50;99.90;;;;;;4944621;28;20133;-84
2021/07/10 00:04:27;;;;;;;2.28;2.00;;;12.50;99.90;;;;;;4949190;28;20042;-85
2021/07/10 00:06:54;;;;;;;2.60;2.38;;;12.60;99.90;;;;;;4950441;28;20026;-85
2021/07/10 00:09:20;;;;;;;4.82;2.42;;;12.50;99.90;;;;;;4971596;28;20045;-85
2021/07/10 00:11:46;;;;;;;2.65;2.45;;;12.40;99.90;;;;;;4965749;28;20046;-84
2021/07/10 00:14:12;;;;;;;2.90;2.40;;;12.30;99.90;;;;;;4970738;28;20035;-85
2021/07/10 00:16:38;;;;;;;3.00;1.90;;;12.30;99.90;;;;;;4923461;28;20413;-85
2021/07/10 00:19:03;;;;;;;2.95;2.50;;;12.30;99.90;;;;;;4965314;28;20514;-84
2021/07/10 00:21:29;;;;;;;5.70;2.40;;;12.30;99.90;;;;;;4958901;28;20026;-84
2021/07/10 00:23:55;;;;;;;2.75;2.03;;;12.30;99.90;;;;;;4974774;28;20393;-84
2021/07/10 00:26:21;;;;;;;3.60;2.28;;;12.30;99.90;;;;;;4971197;28;20648;-83
2021/07/10 00:28:46;;;;;;;11.00;3.13;;;12.30;99.90;;;;;;4954952;28;20038;-85
2021/07/10 00:31:12;;;;;;;3.50;2.30;;;12.30;99.90;;;;;;4966086;28;20027;-85
2021/07/10 00:33:38;;;;;;;5.45;2.80;;;12.30;99.90;;;;;;4954266;28;20038;-85
2021/07/10 00:36:04;;;;;;;2.83;2.50;;;12.30;99.90;;;;;;4956588;28;20052;-84
2021/07/10 00:38:30;;;;;;;2.42;2.22;;;12.30;99.90;;;;;;4968096;28;20027;-84
2021/07/10 00:40:55;;;;;;;2.80;2.40;;;12.30;99.90;;;;;;4981631;28;20420;-84
2021/07/10 00:43:21;;;;;;;2.42;1.95;;;12.40;99.90;;;;;;4976212;28;20046;-85
2021/07/10 00:45:47;;;;;;;3.85;2.38;;;12.40;99.90;;;;;;4962597;28;20162;-84
2021/07/10 00:48:14;;;;;;;4.15;2.70;;;12.40;99.90;;;;;;4970443;28;20148;-84
2021/07/10 00:50:40;;;;;;;3.53;1.95;;;12.50;99.90;;;;;;4965991;28;20072;-85
2021/07/10 00:53:05;;;;;;;2.65;2.40;;;12.50;99.90;;;;;;4954782;28;20039;-84
2021/07/10 00:55:31;;;;;;;3.13;2.80;;;12.60;99.90;;;;;;4931673;28;20072;-86
2021/07/10 00:58:00;;;;;;;3.70;2.60;;;12.60;99.90;;;;;;4980791;28;20026;-85
2021/07/10 01:00:26;;;;;;;6.07;2.95;;;12.60;99.90;;;;;;4972578;28;20401;-85
2021/07/10 01:02:54;;;;;;;2.95;2.65;;;12.70;99.90;;;;;;4960939;28;20042;-85
2021/07/10 01:05:26;;;;;;;5.20;2.63;;;12.70;99.90;;;;;;4964304;28;20046;-85
2021/07/10 01:07:52;;;;;;;5.13;3.00;;;12.80;99.90;;;;;;4968557;28;20038;-85
2021/07/10 01:10:18;;;;;;;4.72;3.03;;;12.80;99.90;;;;;;4964188;28;20389;-84
2021/07/10 01:12:46;;;;;;;4.10;2.85;;;12.90;99.90;;;;;;4967758;28;20034;-85
2021/07/10 01:15:14;;;;;;;4.25;3.10;;;12.90;99.90;;;;;;4968277;28;20039;-85
2021/07/10 01:17:42;;;;;;;3.47;3.03;;;12.90;99.90;;;;;;4988205;28;20109;-84
2021/07/10 01:20:12;;;;;;;3.65;3.00;;;13.00;99.90;;;;;;4953439;28;20093;-85
2021/07/10 01:22:39;;;;;;;3.38;3.05;;;13.10;99.90;;;;;;4967155;28;20137;-83
2021/07/10 01:25:07;;;;;;;4.30;2.92;;;13.10;99.90;;;;;;4968572;28;20039;-84
2021/07/10 01:27:33;;;;;;;4.53;2.75;;;13.20;99.90;;;;;;4955922;28;20444;-85
2021/07/10 01:30:03;;;;;;;3.25;2.83;;;13.10;99.90;;;;;;4985637;28;20444;-84
2021/07/10 01:32:29;;;;;;;3.50;2.63;;;13.20;99.90;;;;;;4985358;28;20034;-84
2021/07/10 01:34:55;;;;;;;4.53;3.00;;;13.20;99.90;;;;;;4984850;28;20027;-84
2021/07/10 01:37:21;;;;;;;3.17;2.67;;;13.20;99.90;;;;;;4958003;28;20041;-84
2021/07/10 01:39:47;;;;;;;3.53;2.85;;;13.20;99.90;;;;;;4992243;28;20492;-85
2021/07/10 01:42:12;;;;;;;3.13;2.25;;;13.20;99.90;;;;;;4974032;28;20066;-84
2021/07/10 01:44:39;;;;;;;2.60;2.33;;;13.20;99.90;;;;;;4983583;28;20035;-85
2021/07/10 01:47:05;;;;;;;4.72;2.25;;;13.30;99.90;;;;;;4955651;28;20121;-84
2021/07/10 01:49:32;;;;;;;2.95;2.60;;;13.30;99.90;;;;;;4975809;28;20027;-85
2021/07/10 01:51:58;;;;;;;3.60;2.65;;;13.30;99.90;;;;;;4960882;28;20057;-84
2021/07/10 01:54:24;;;;;;;4.03;2.85;;;13.40;99.90;;;;;;4974225;28;20030;-84
2021/07/10 01:56:50;;;;;;;4.28;3.47;;;13.40;99.90;;;;;;4982721;28;20026;-84
2021/07/10 01:59:16;;;;;;;6.32;3.65;;;13.30;99.90;;;;;;4956260;28;20204;-85
2021/07/10 02:01:49;;;;;;;5.10;3.20;;;13.30;99.90;;;;;;4980384;28;20554;-84
2021/07/10 02:04:20;;;;;;;5.45;3.00;;;13.30;99.90;;;;;;4974135;28;20490;-84
2021/07/10 02:06:46;;;;;;;4.75;3.30;;;13.30;99.90;;;;;;4966950;28;20551;-84
2021/07/10 02:09:13;;;;;;;5.38;3.17;;;13.30;99.90;;;;;;4967485;28;20034;-84
2021/07/10 02:11:45;;;;;;;4.30;3.13;;;13.30;99.90;;;;;;4984774;28;20046;-84
2021/07/10 02:14:12;;;;;;;3.47;2.75;;;13.40;99.90;;;;;;4970642;28;20035;-85
2021/07/10 02:16:37;;;;;;;3.25;2.53;;;13.40;99.90;;;;;;4976518;28;20034;-84
2021/07/10 02:19:03;;;;;;;3.00;2.30;;;13.40;99.90;;;;;;4955907;28;20034;-85
2021/07/10 02:21:29;;;;;;;3.50;2.35;;;13.40;99.90;;;;;;4965741;28;20042;-84
2021/07/10 02:23:55;;;;;;;3.60;2.83;;;13.50;99.90;;;;;;4986222;28;20034;-84
2021/07/10 02:26:20;;;;;;;5.88;2.70;;;13.50;99.90;;;;;;4971828;28;20038;-85
2021/07/10 02:28:46;;;;;;;3.72;2.80;;;13.50;99.90;;;;;;4959582;28;20034;-84
2021/07/10 02:31:12;;;;;;;3.65;2.83;;;13.60;99.90;;;;;;4983871;28;20033;-84
2021/07/10 02:33:39;;;;;;;3.92;2.90;;;13.50;99.90;;;;;;4958534;28;20026;-85
2021/07/10 02:36:05;;;;;;;2.65;1.98;;;13.50;99.90;;;;;;4952184;28;20116;-85
2021/07/10 02:38:30;;;;;;;2.95;1.90;;;13.50;99.90;;;;;;4976310;28;20462;-85
2021/07/10 02:40:56;;;;;;;4.68;2.38;;;13.50;99.90;;;;;;4967326;28;20039;-84
2021/07/10 02:43:22;;;;;;;4.72;2.67;;;13.50;99.90;;;;;;4974786;28;20041;-85
2021/07/10 02:45:48;;;;;;;3.80;2.50;;;13.50;99.90;;;;;;4965502;28;20042;-84
2021/07/10 02:48:14;;;;;;;4.00;2.60;;;13.60;99.90;;;;;;4971254;28;20514;-85
2021/07/10 02:50:41;;;;;;;6.20;3.70;;;13.60;99.90;;;;;;4973829;28;20031;-86
2021/07/10 02:53:06;;;;;;;4.57;3.13;;;13.60;99.90;;;;;;4956663;28;20118;-84
2021/07/10 02:55:34;;;;;;;4.70;3.08;;;13.60;99.90;;;;;;4964210;28;20118;-84
2021/07/10 02:58:01;;;;;;;5.72;3.55;;;13.60;99.90;;;;;;4981781;28;20030;-85
2021/07/10 03:00:28;;;;;;;4.28;3.03;;;13.60;99.90;;;;;;4967051;28;20038;-84
2021/07/10 03:02:56;;;;;;;10.57;5.18;;;13.60;99.90;;;;;;4956485;28;20034;-84
2021/07/10 03:05:22;;;;;;;14.10;6.85;;;13.60;99.90;;;;;;4983172;28;20049;-84
2021/07/10 03:07:48;;;;;;;12.02;6.30;;;13.70;99.90;;;;;;4966472;28;20031;-84
2021/07/10 03:10:22;;;;;;;11.48;5.95;;;13.60;99.90;;;;;;4970044;28;20044;-85
2021/07/10 03:12:48;;;;;;;11.18;6.25;;;13.60;99.90;;;;;;4969505;28;20042;-85
2021/07/10 03:15:16;;;;;;;12.02;7.13;;;13.60;99.90;;;;;;4987996;28;20081;-85
2021/07/10 03:17:44;;;;;;;13.35;7.30;;;13.60;99.90;;;;;;4969085;28;20049;-85
2021/07/10 03:20:10;;;;;;;13.88;7.97;;;13.60;99.90;;;;;;4955897;28;20069;-85
2021/07/10 03:22:36;;;;;;;13.20;7.10;;;13.60;99.90;;;;;;4974969;28;20055;-84
2021/07/10 03:25:07;;;;;;;15.02;8.05;;;13.60;99.90;;;;;;4956629;28;20042;-85
2021/07/10 03:27:33;;;;;;;15.52;7.10;;;13.60;99.90;;;;;;4979029;28;20035;-83
2021/07/10 03:30:00;;;;;;;12.63;7.13;;;13.50;99.90;;;;;;4964516;28;20113;-85
2021/07/10 03:32:26;;;;;;;11.98;6.65;;;13.50;99.90;;;;;;4963734;28;20077;-84
2021/07/10 03:34:52;;;;;;;10.30;6.75;;;13.50;99.90;;;;;;4961551;28;20030;-84
2021/07/10 03:37:18;;;;;;;13.02;7.72;;;13.50;99.90;;;;;;4957343;28;20482;-84
2021/07/10 03:39:43;;;;;;;14.63;7.13;;;13.50;99.90;;;;;;4955630;28;20045;-84
2021/07/10 03:42:09;;;;;;;12.95;7.28;;;13.50;99.90;;;;;;4977173;28;20053;-83
2021/07/10 03:44:35;;;;;;;13.05;6.82;;;13.30;99.90;;;;;;4966972;28;20038;-86
2021/07/10 03:47:01;;;;;;;9.45;6.15;;;13.20;99.90;;;;;;4954274;28;20050;-84
2021/07/10 03:49:27;;;;;;;12.52;7.30;;;13.20;99.90;;;;;;4967281;28;20046;-84
2021/07/10 03:51:53;;;;;;;10.30;6.05;;;13.10;99.90;;;;;;4968529;28;20030;-84
2021/07/10 03:54:19;;;;;;;11.25;7.28;;;13.10;99.90;;;;;;4956475;28;20401;-85
2021/07/10 03:56:44;;;;;;;12.35;7.07;;;13.20;99.90;;;;;;4967513;28;20026;-85
2021/07/10 03:59:10;;;;;;;13.02;7.72;;;13.20;99.90;;;;;;4986616;28;20030;-85
2021/07/10 04:01:36;;;;;;;14.20;8.32;;;13.20;99.90;;;;;;4956620;28;20027;-85
2021/07/10 04:04:02;;;;;;;13.00;7.57;;;13.20;99.90;;;;;;4953761;28;20047;-85
2021/07/10 04:06:28;;;;;;;13.63;7.75;;;13.20;99.90;;;;;;4950453;28;20035;-85
2021/07/10 04:08:54;;;;;;;12.48;7.10;;;13.30;99.90;;;;;;4974560;28;20519;-85
2021/07/10 04:11:20;;;;;;;14.20;6.85;;;13.30;99.90;;;;;;4957420;28;20132;-85
2021/07/10 04:13:45;;;;;;;13.77;7.88;;;13.30;99.90;;;;;;4955428;28;20112;-86
2021/07/10 04:16:11;;;;;;;18.33;8.50;;;13.30;99.90;;;;;;4962451;28;20034;-85
2021/07/10 04:18:37;;;;;;;14.13;8.45;;;13.20;99.90;;;;;;4956523;28;20034;-86
2021/07/10 04:21:04;;;;;;;12.80;7.97;;;13.20;99.90;;;;;;4963133;28;20035;-85
2021/07/10 04:23:31;;;;;;;14.15;7.85;;;13.30;99.90;;;;;;4981573;28;20034;-85
2021/07/10 04:25:57;;;;;;;12.88;7.95;;;13.20;99.90;;;;;;4953003;28;20026;-84
2021/07/10 04:28:22;;;;;;;13.13;8.25;;;13.20;99.90;;;;;;4958603;28;20035;-85
2021/07/10 04:30:49;;;;;;;12.23;7.47;;;13.10;99.90;;;;;;4970301;28;20121;-84
2021/07/10 04:33:14;;;;;;;14.38;8.10;;;13.10;99.90;;;;;;4933953;28;20077;-84
2021/07/10 04:35:40;;;;;;;16.75;8.40;;;13.10;99.90;;;;;;4972776;28;20076;-85
2021/07/10 04:38:06;;;;;;;14.52;7.93;;;13.00;99.90;;;;;;4958572;28;20490;-85
2021/07/10 04:40:32;;;;;;;15.38;8.35;;;13.00;99.90;;;;;;4954739;28;20401;-85
2021/07/10 04:42:57;;;;;;;15.32;8.63;;;13.10;99.90;;;;;;4991269;28;20150;-87
2021/07/10 04:45:23;;;;;;;16.13;8.25;;;13.10;99.90;;;;;;4957582;28;20669;-85
2021/07/10 04:47:49;;;;;;;13.93;7.80;;;13.20;99.90;;;;;;4957944;28;20039;-85
2021/07/10 04:50:15;;;;;;;13.85;8.07;;;13.30;99.90;;;;;;4957511;28;20035;-85
2021/07/10 04:52:42;;;;;;;13.10;8.35;;;13.30;99.90;;;;;;4966470;28;20060;-85
2021/07/10 04:55:14;;;;;;;13.80;8.20;;;13.40;99.90;;;;;;4987194;28;20027;-86
2021/07/10 04:57:41;;;;;;;12.82;7.72;;;13.50;99.90;;;;;;4971540;28;20035;-85
2021/07/10 05:00:07;;;;;;;13.68;8.38;;;13.50;99.90;;;;;;4964417;28;20088;-85
2021/07/10 05:02:33;;;;;;;12.55;7.70;;;13.50;99.90;;;;;;4947143;28;20042;-85
2021/07/10 05:04:59;;;;;;;12.63;7.85;;;13.60;99.90;;;;;;4967866;28;20046;-86
2021/07/10 05:07:25;;;;;;;12.30;7.40;;;13.60;99.90;;;;;;4981336;28;20040;-86
2021/07/10 05:09:51;;;;;;;10.07;7.00;;;13.70;99.90;;;;;;4966224;28;20026;-85
2021/07/10 05:12:20;;;;;;;10.93;7.05;;;13.80;99.90;;;;;;4980137;28;20119;-84
2021/07/10 05:14:51;;;;;;;12.68;7.70;;;13.80;99.90;;;;;;4952972;28;20442;-84
2021/07/10 05:17:18;;;;;;;11.55;7.50;;;13.90;99.90;;;;;;4985105;28;20027;-85
2021/07/10 05:19:44;;;;;;;11.55;7.95;;;14.00;99.90;;;;;;4972898;28;20046;-85
2021/07/10 05:22:11;;;;;;;13.98;8.18;;;14.00;99.90;;;;;;4970255;28;20034;-84
2021/07/10 05:24:37;;;;;;;10.20;7.55;;;14.10;99.90;;;;;;4970763;28;20019;-86
2021/07/10 05:27:03;;;;;;;11.25;7.65;;;14.10;99.90;;;;;;4963754;28;20032;-84
2021/07/10 05:29:29;;;;;;;9.00;6.55;;;14.10;99.90;;;;;;4988466;28;20038;-85
2021/07/10 05:31:54;;;;;;;10.18;7.35;;;14.10;99.90;;;;;;4969498;28;20027;-85
2021/07/10 05:34:21;;;;;;;10.95;7.30;;;14.20;99.90;;;;;;4954495;28;20037;-84
2021/07/10 05:36:47;;;;;;;8.75;6.28;;;14.10;99.90;;;;;;4952994;28;20039;-84
2021/07/10 05:39:14;;;;;;;11.02;6.32;;;14.00;99.90;;;;;;4972885;28;20042;-85
2021/07/10 05:41:40;;;;;;;10.70;7.03;;;14.10;99.90;;;;;;4957559;28;20034;-85
2021/07/10 05:44:05;;;;;;;8.63;6.97;;;14.20;99.90;;;;;;4965518;28;20090;-85
2021/07/10 05:46:31;;;;;;;10.65;7.03;;;14.20;99.90;;;;;;4971075;28;20034;-85
2021/07/10 05:48:57;;;;;;;9.35;7.20;;;14.20;99.90;;;;;;4956473;28;20525;-85
2021/07/10 05:51:23;;;;;;;7.53;6.22;;;14.30;99.90;;;;;;4957556;28;20038;-85
2021/07/10 05:53:49;;;;;;;9.40;6.68;;;14.30;99.90;;;;;;4978510;28;20034;-85
2021/07/10 05:56:14;;;;;;;10.32;7.20;;;14.40;99.90;;;;;;4954478;28;20035;-84
2021/07/10 05:58:41;;;;;;;8.57;6.35;;;14.50;99.90;;;;;;4967165;28;20034;-85
2021/07/10 06:01:07;;;;;;;8.30;6.57;;;14.50;99.90;;;;;;4981209;28;20034;-85
2021/07/10 06:03:33;;;;;;;7.95;6.18;;;14.60;99.90;;;;;;4962999;28;20045;-85
2021/07/10 06:05:58;;;;;;;12.60;7.65;;;14.60;99.90;;;;;;4950082;28;20053;-85
2021/07/10 06:08:24;;;;;;;11.68;7.43;;;14.60;99.90;;;;;;4967747;28;20091;-87
2021/07/10 06:10:50;;;;;;;9.80;7.43;;;14.70;99.90;;;;;;4976755;28;20547;-85
2021/07/10 06:13:16;;;;;;;9.50;6.90;;;14.50;99.90;;;;;;4979748;28;20034;-85
2021/07/10 06:15:42;;;;;;;10.00;7.03;;;14.30;99.90;;;;;;4956724;28;20192;-85
2021/07/10 06:18:09;;;;;;;10.18;6.95;;;14.20;99.90;;;;;;4985283;28;20026;-85
2021/07/10 06:20:37;;;;;;;11.35;7.63;;;14.20;99.90;;;;;;4972020;28;20118;-84
2021/07/10 06:23:05;;;;;;;9.40;6.95;;;14.30;99.90;;;;;;4973633;28;20050;-85
2021/07/10 06:25:32;;;;;;;10.07;7.47;;;14.30;99.90;;;;;;4966624;28;20486;-84
2021/07/10 06:27:59;;;;;;;12.60;7.63;;;14.40;99.90;;;;;;4980289;28;20062;-83
2021/07/10 06:30:25;;;;;;;11.50;7.53;;;14.50;99.90;;;;;;4980941;28;20034;-84
2021/07/10 06:32:51;;;;;;;9.88;6.70;;;14.60;99.90;;;;;;4962445;28;20063;-84
2021/07/10 06:35:17;;;;;;;9.20;6.78;;;14.70;99.90;;;;;;4954338;28;20052;-84
2021/07/10 06:37:43;;;;;;;9.00;6.75;;;15.00;99.90;;;;;;4956667;28;20038;-84
2021/07/10 06:40:12;;;;;;;7.78;6.18;;;15.10;99.90;;;;;;4983101;28;20027;-84
2021/07/10 06:42:38;;;;;;;8.63;6.63;;;15.30;99.90;;;;;;4972444;28;21010;-85
2021/07/10 06:45:06;;;;;;;8.25;6.25;;;15.30;99.90;;;;;;4977690;28;20035;-85
2021/07/10 06:47:32;;;;;;;7.82;5.93;;;15.30;99.90;;;;;;4958917;28;20512;-84
2021/07/10 06:49:57;;;;;;;8.10;6.47;;;15.50;99.90;;;;;;4980963;28;20062;-85
2021/07/10 06:52:24;;;;;;;7.70;5.80;;;15.40;99.90;;;;;;4989078;28;20031;-84
2021/07/10 06:54:49;;;;;;;9.10;6.47;;;15.10;99.90;;;;;;4976057;28;20053;-84
2021/07/10 06:57:15;;;;;;;9.18;6.20;;;15.20;99.90;;;;;;4961857;28;20062;-84
2021/07/10 06:59:41;;;;;;;8.05;6.30;;;15.30;99.90;;;;;;4956174;28;20041;-84
2021/07/10 07:02:07;;;;;;;8.20;6.00;;;15.30;99.90;;;;;;4957506;28;20040;-84
2021/07/10 07:04:33;;;;;;;8.73;6.78;;;15.10;99.90;;;;;;4990805;28;20033;-84
2021/07/10 07:06:58;;;;;;;11.75;6.90;;;15.10;99.90;;;;;;4988728;28;20101;-84
2021/07/10 07:09:24;;;;;;;9.32;6.25;;;15.20;99.90;;;;;;4949802;28;20039;-84
2021/07/10 07:11:51;;;;;;;7.13;5.25;;;15.20;99.90;;;;;;4933706;28;20184;-83
2021/07/10 07:14:18;;;;;;;7.88;5.82;;;15.30;99.90;;;;;;4971356;28;20034;-83
2021/07/10 07:16:44;;;;;;;7.32;6.15;;;15.40;99.90;;;;;;4937274;28;20031;-83
2021/07/10 07:19:10;;;;;;;8.05;6.45;;;15.50;99.90;;;;;;4971372;28;20097;-84
2021/07/10 07:21:36;;;;;;;9.00;6.60;;;15.50;99.90;;;;;;4963621;28;20026;-85
2021/07/10 07:24:02;;;;;;;7.85;6.15;;;15.50;99.90;;;;;;4945991;28;20089;-84
2021/07/10 07:26:27;;;;;;;7.63;6.20;;;15.70;99.90;;;;;;4980251;28;20497;-84
2021/07/10 07:28:53;;;;;;;7.15;5.90;;;15.80;99.90;;;;;;4970018;28;20109;-84
2021/07/10 07:31:19;;;;;;;5.65;4.72;;;15.80;99.90;;;;;;4987513;28;20034;-84
2021/07/10 07:33:45;;;;;;;9.20;4.95;;;16.00;99.90;;;;;;4961361;28;20030;-83
2021/07/10 07:36:11;;;;;;;5.93;4.20;;;16.00;99.90;;;;;;4955075;28;20026;-83
2021/07/10 07:38:37;;;;;;;5.18;4.22;;;16.00;99.90;;;;;;4968363;28;20030;-84
2021/07/10 07:41:04;;;;;;;6.50;4.88;;;16.00;99.90;;;;;;4957364;28;20381;-83
2021/07/10 07:43:30;;;;;;;5.68;4.60;;;15.90;99.90;;;;;;4975867;28;20057;-84
2021/07/10 07:45:56;;;;;;;6.55;4.68;;;15.90;99.90;;;;;;4958926;28;20043;-83
2021/07/10 07:48:21;;;;;;;5.03;4.35;;;16.00;99.90;;;;;;4970448;28;20038;-84
2021/07/10 07:51:01;;;;;;;5.00;4.35;;;15.90;99.90;;;;;;4954429;28;20093;-84
2021/07/10 07:53:27;;;;;;;6.55;4.82;;;15.90;99.90;;;;;;4970285;28;20510;-83
2021/07/10 07:55:54;;;;;;;6.13;4.82;;;16.10;99.90;;;;;;4942903;28;20042;-84
2021/07/10 07:58:20;;;;;;;5.32;3.90;;;16.40;99.90;;;;;;4964335;28;20035;-84
2021/07/10 08:00:46;;;;;;;5.97;4.18;;;16.60;99.90;;;;;;4969541;28;20084;-84
2021/07/10 08:03:11;;;;;;;6.40;3.70;;;16.70;99.90;;;;;;4950941;28;20034;-84
2021/07/10 08:05:37;;;;;;;4.25;3.85;;;16.80;99.90;;;;;;4950051;28;20031;-84
2021/07/10 08:08:04;;;;;;;6.72;3.50;;;16.90;99.90;;;;;;4979426;28;20513;-85
2021/07/10 08:10:29;;;;;;;4.50;4.05;;;17.30;99.90;;;;;;4947976;28;20040;-83
2021/07/10 08:12:55;;;;;;;4.93;3.83;;;17.50;99.90;;;;;;4961270;28;20042;-83
2021/07/10 08:15:23;;;;;;;4.47;3.75;;;17.80;99.90;;;;;;4949380;28;20030;-85
2021/07/10 08:17:50;;;;;;;4.90;4.18;;;17.90;99.90;;;;;;4970595;28;20030;-84
2021/07/10 08:20:16;;;;;;;3.90;3.45;;;18.00;99.90;;;;;;4961555;28;20039;-85
2021/07/10 08:22:44;;;;;;;4.15;3.67;;;18.10;99.90;;;;;;4952096;28;20050;-83
2021/07/10 08:25:10;;;;;;;4.65;3.78;;;18.10;99.90;;;;;;4982865;28;20452;-83
2021/07/10 08:27:36;;;;;;;5.10;4.38;;;17.70;99.90;;;;;;4963299;28;20108;-84
2021/07/10 08:30:04;;;;;;;5.20;3.92;;;17.50;99.90;;;;;;4960933;28;20045;-84
2021/07/10 08:32:30;;;;;;;4.32;3.50;;;17.60;99.90;;;;;;4992465;28;20089;-83
2021/07/10 08:34:55;;;;;;;4.47;3.95;;;17.90;99.90;;;;;;4947555;28;20628;-84
2021/07/10 08:37:21;;;;;;;3.78;3.30;;;18.10;99.90;;;;;;4977844;28;20030;-84
2021/07/10 08:39:47;;;;;;;4.57;3.42;;;18.50;99.90;;;;;;4980520;28;20638;-84
2021/07/10 08:42:13;;;;;;;3.65;3.35;;;18.60;99.90;;;;;;4966048;28;20059;-85
2021/07/10 08:44:41;;;;;;;3.53;3.20;;;18.90;99.90;;;;;;4971025;28;20061;-85
2021/07/10 08:47:13;;;;;;;4.88;2.83;;;19.20;99.90;;;;;;4957869;28;20041;-84
2021/07/10 08:49:40;;;;;;;4.35;3.03;;;19.20;99.90;;;;;;4984331;28;20719;-84
2021/07/10 08:52:06;;;;;;;4.38;3.97;;;19.20;99.90;;;;;;4967550;28;20026;-84
2021/07/10 08:54:33;;;;;;;4.05;3.65;;;19.20;99.90;;;;;;4936649;28;20093;-84
2021/07/10 08:56:59;;;;;;;4.75;3.88;;;19.20;99.90;;;;;;4982322;28;20046;-84
2021/07/10 08:59:25;;;;;;;3.78;3.47;;;18.70;99.90;;;;;;4946166;28;20098;-84
2021/07/10 09:01:53;;;;;;;5.07;3.92;;;18.80;99.90;;;;;;4966793;28;20035;-85
2021/07/10 09:04:28;;;;;;;6.13;3.90;;;19.10;99.90;;;;;;4971413;28;20092;-84
2021/07/10 09:06:54;;;;;;;4.30;3.08;;;19.50;99.90;;;;;;4942790;28;20035;-85
2021/07/10 09:09:39;;;;;;;3.80;3.40;;;20.10;99.90;;;;;;4974133;28;20034;-84
2021/07/10 09:12:06;;;;;;;3.88;3.47;;;20.30;99.90;;;;;;5001403;28;20048;-83
2021/07/10 09:14:32;;;;;;;3.45;3.15;;;20.10;99.90;;;;;;4945484;28;20034;-85
2021/07/10 09:17:19;;;;;;;3.60;3.30;;;20.10;99.90;;;;;;4962137;28;20045;-86
2021/07/10 09:19:46;;;;;;;3.63;3.20;;;20.30;99.90;;;;;;4967059;28;20702;-84
2021/07/10 09:22:24;;;;;;;3.88;3.38;;;20.00;99.90;;;;;;4970676;28;20031;-83
2021/07/10 09:24:50;;;;;;;4.55;3.90;;;19.70;99.90;;;;;;4975823;28;20141;-84
2021/07/10 09:27:16;;;;;;;5.68;3.78;;;19.60;99.90;;;;;;4978191;28;20113;-84
2021/07/10 09:29:43;;;;;;;5.30;3.40;;;19.60;99.90;;;;;;4964883;28;20229;-84
2021/07/10 09:32:11;;;;;;;5.00;3.13;;;19.60;99.90;;;;;;4967754;28;20030;-83
2021/07/10 09:34:44;;;;;;;5.22;3.13;;;19.70;99.90;;;;;;4972770;28;20030;-83
2021/07/10 09:37:20;;;;;;;3.22;2.70;;;19.40;99.90;;;;;;4975276;28;20030;-83
2021/07/10 09:40:02;;;;;;;3.35;2.88;;;19.60;99.90;;;;;;4962579;28;20085;-84
2021/07/10 09:42:39;;;;;;;2.97;2.78;;;19.70;99.90;;;;;;4968192;28;20066;-84
2021/07/10 09:45:08;;;;;;;3.25;2.80;;;19.70;99.90;;;;;;4960307;28;20034;-84
2021/07/10 09:47:36;;;;;;;4.53;3.10;;;19.60;99.90;;;;;;4947346;28;20039;-84
2021/07/10 09:50:06;;;;;;;2.63;2.42;;;19.60;99.90;;;;;;4949168;28;20066;-84
2021/07/10 09:52:37;;;;;;;3.80;2.97;;;19.60;99.90;;;;;;4995697;28;20124;-85
2021/07/10 09:55:03;;;;;;;4.43;3.17;;;19.70;99.90;;;;;;4970991;28;20022;-83
2021/07/10 09:57:31;;;;;;;3.63;3.03;;;19.80;99.90;;;;;;4962574;28;20073;-83
2021/07/10 10:00:03;;;;;;;2.88;2.45;;;19.90;99.90;;;;;;4967966;28;20027;-84
2021/07/10 10:02:32;;;;;;;3.78;2.80;;;20.00;99.90;;;;;;4971795;28;20042;-84
2021/07/10 10:05:06;;;;;;;3.95;3.10;;;20.00;99.90;;;;;;4952845;28;20218;-83
2021/07/10 10:07:51;;;;;;;3.30;3.00;;;20.10;99.90;;;;;;4953322;28;20045;-83
2021/07/10 10:10:31;;;;;;;2.83;2.60;;;20.10;99.90;;;;;;4971792;28;20030;-83
2021/07/10 10:13:09;;;;;;;3.60;3.30;;;20.10;99.90;;;;;;4964597;28;20042;-83
2021/07/10 10:15:40;;;;;;;3.38;3.03;;;20.00;99.90;;;;;;4957538;28;20026;-82
2021/07/10 10:18:07;;;;;;;3.28;2.97;;;19.80;99.90;;;;;;4971900;28;20034;-83
2021/07/10 10:20:35;;;;;;;6.72;3.10;;;19.80;99.90;;;;;;4981351;28;20029;-83
2021/07/10 10:23:02;;;;;;;2.75;2.55;;;19.80;99.90;;;;;;4982839;28;20650;-83
2021/07/10 10:25:28;;;;;;;3.25;2.53;;;19.80;99.90;;;;;;4949178;28;20129;-83
2021/07/10 10:27:55;;;;;;;2.78;2.58;;;19.90;99.90;;;;;;4974103;28;20659;-82
2021/07/10 10:30:22;;;;;;;2.70;2.42;;;19.90;99.90;;;;;;4967409;28;20452;-82
2021/07/10 10:32:49;;;;;;;3.03;2.72;;;19.90;99.90;;;;;;4971971;28;20027;-82
2021/07/10 10:35:16;;;;;;;4.00;2.67;;;19.90;99.90;;;;;;4966994;28;20121;-82
2021/07/10 10:37:43;;;;;;;3.13;2.80;;;20.00;99.90;;;;;;4974030;28;20124;-83
2021/07/10 10:40:17;;;;;;;5.47;3.13;;;20.00;99.90;;;;;;4984480;28;20153;-82
2021/07/10 10:42:44;;;;;;;3.20;2.17;;;20.10;99.90;;;;;;4973251;28;20030;-83
2021/07/10 10:45:11;;;;;;;5.45;2.58;;;20.00;99.90;;;;;;4970872;28;20029;-82
2021/07/10 10:47:45;;;;;;;2.90;2.60;;;20.10;99.90;;;;;;4954749;28;20030;-82
2021/07/10 10:50:43;;;;;;;2.75;2.55;;;20.10;99.90;;;;;;4969457;28;20043;-83
2021/07/10 10:53:21;;;;;;;3.30;3.00;;;20.10;99.90;;;;;;4977183;28;20638;-82
2021/07/10 10:55:47;;;;;;;3.00;2.70;;;20.20;99.90;;;;;;4960219;28;20039;-82
2021/07/10 10:58:25;;;;;;;2.45;2.25;;;20.20;99.90;;;;;;4988985;28;20046;-82
2021/07/10 11:01:06;;;;;;;3.15;2.80;;;20.30;99.90;;;;;;4951765;28;20117;-83
2021/07/10 11:03:42;;;;;;;2.63;2.42;;;20.40;99.90;;;;;;4986186;28;20814;-82
2021/07/10 11:06:30;;;;;;;4.15;2.80;;;20.40;99.90;;;;;;4973500;28;20030;-82
2021/07/10 11:08:56;;;;;;;5.28;2.80;;;20.40;99.90;;;;;;4966777;28;20046;-83
2021/07/10 11:11:23;;;;;;;3.97;3.17;;;20.40;99.90;;;;;;4974531;28;20037;-83
2021/07/10 11:14:12;;;;;;;4.68;3.17;;;20.30;99.90;;;;;;4982063;28;20030;-82
2021/07/10 11:17:04;;;;;;;4.03;2.58;;;20.40;99.90;;;;;;4980974;28;20023;-82
2021/07/10 11:19:51;;;;;;;4.38;3.40;;;20.40;99.90;;;;;;4987531;28;20027;-82
2021/07/10 11:22:54;;;;;;;2.65;2.45;;;20.40;99.90;;;;;;4989052;28;20535;-82
2021/07/10 11:25:51;;;;;;;2.95;2.65;;;20.50;99.90;;;;;;4979721;28;20083;-82
2021/07/10 11:28:19;;;;;;;2.95;2.72;;;20.70;99.90;;;;;;4986875;28;20073;-83
2021/07/10 11:30:46;;;;;;;4.53;2.50;;;20.70;99.90;;;;;;4979283;28;20024;-84
2021/07/10 11:33:13;;;;;;;2.83;2.40;;;20.80;99.90;;;;;;4984663;28;20068;-83
2021/07/10 11:35:43;;;;;;;2.70;2.50;;;20.80;99.90;;;;;;4964327;28;20019;-83
2021/07/10 11:38:39;;;;;;;3.97;2.60;;;20.80;99.90;;;;;;4979340;28;20034;-83
2021/07/10 11:41:05;;;;;;;2.42;2.22;;;21.00;99.90;;;;;;4951714;28;20125;-83
2021/07/10 11:43:39;;;;;;;1.88;1.70;;;21.10;99.90;;;;;;4972588;28;20536;-83
2021/07/10 11:46:05;;;;;;;4.50;2.60;;;21.10;99.90;;;;;;4967019;28;20042;-83
2021/07/10 11:48:33;;;;;;;2.10;1.90;;;21.20;99.90;;;;;;4956403;28;20125;-82
2021/07/10 11:51:07;;;;;;;2.30;2.10;;;21.20;99.90;;;;;;4961645;28;20038;-83
2021/07/10 11:53:33;;;;;;;2.70;2.42;;;21.40;99.90;;;;;;4970189;28;20048;-82
2021/07/10 11:55:59;;;;;;;2.20;2.00;;;21.50;99.90;;;;;;4968882;28;20031;-83
2021/07/10 11:58:27;;;;;;;2.33;2.10;;;21.60;99.90;;;;;;4983752;28;20027;-82
2021/07/10 12:00:58;;;;;;;1.80;1.70;;;21.60;99.90;;;;;;4971154;28;20122;-83
2021/07/10 12:03:25;;;;;;;2.78;1.88;;;21.70;99.90;;;;;;4968620;28;20093;-82
2021/07/10 12:05:52;;;;;;;2.47;2.00;;;21.70;99.90;;;;;;4964348;28;20030;-83
2021/07/10 12:08:19;;;;;;;2.13;2.03;;;21.80;99.90;;;;;;4960203;28;20822;-83
2021/07/10 12:10:46;;;;;;;2.20;2.05;;;22.00;99.90;;;;;;4960062;28;20443;-81
2021/07/10 12:13:18;;;;;;;1.92;1.70;;;22.40;99.90;;;;;;4966814;28;20039;-82
2021/07/10 12:15:46;;;;;;;1.83;1.58;;;22.70;99.30;;;;;;4967078;28;20678;-82
2021/07/10 12:18:13;;;;;;;1.75;1.63;;;22.40;98.40;;;;;;4982454;28;20034;-81
2021/07/10 12:20:44;;;;;;;1.67;1.58;;;22.80;99.60;;;;;;4957981;28;20030;-82
2021/07/10 12:23:19;;;;;;;1.63;1.52;;;23.20;99.90;;;;;;4960857;28;20035;-82
2021/07/10 12:25:57;;;;;;;3.10;1.73;;;23.40;96.40;;;;;;4958746;28;20085;-82
2021/07/10 12:28:45;;;;;;;1.70;1.55;;;23.70;96.80;;;;;;4954252;28;20039;-81
2021/07/10 12:31:20;;;;;;;1.75;1.65;;;23.80;97.00;;;;;;4977031;28;20046;-82
2021/07/10 12:33:46;;;;;;;;;;;23.70;96.60;;;;;;4984791;28;20085;-81
2021/07/10 12:36:12;;;;;;;;;;;23.40;94.40;;;;;;4986974;28;20164;-82
2021/07/10 12:38:55;;;;;;;2.28;2.08;;;23.40;97.30;;;;;;4983511;28;19910;-82
2021/07/10 12:41:26;;;;;;;2.50;1.90;;;23.50;96.60;;;;;;4980406;28;20088;-82
2021/07/10 12:43:54;;;;;;;1.98;1.83;;;23.40;95.10;;;;;;4980557;28;20031;-81
2021/07/10 12:46:19;;;;;;;2.15;1.77;;;23.50;99.10;;;;;;4973616;28;20081;-82
2021/07/10 12:48:46;;;;;;;2.85;1.92;;;23.40;93.30;;;;;;4959356;28;20034;-82
2021/07/10 12:51:13;;;;;;;3.72;2.08;;;23.40;94.00;;;;;;4977046;28;20522;-81